sensor_id;sensor_type;location;lat;lon;timestamp;pressure;altitude;pressure_sealevel;temperature;humidity
84615;BME280;74845;51.204;22.580;2024-02-23T00:00:27;97619.88;;;5.79;56.28
84615;BME280;74845;51.204;22.580;2024-02-23T00:02:54;97654.19;;;6.05;56.42
84615;BME280;74845;51.204;22.580;2024-02-23T00:05:23;97690.09;;;6.14;56.28
84615;BME280;74845;51.204;22.580;2024-02-23T00:07:50;97570.75;;;5.52;56.46
84615;BME280;74845;51.204;22.580;2024-02-23T00:10:17;97663.72;;;6.06;56.65
84615;BME280;74845;51.204;22.580;2024-02-23T00:12:44;97612.97;;;5.78;56.68
84615;BME280;74845;51.204;22.580;2024-02-23T00:15:10;97660.66;;;6.11;56.84
84615;BME280;74845;51.204;22.580;2024-02-23T00:17:37;97637.63;;;5.95;56.78
84615;BME280;74845;51.204;22.580;2024-02-23T00:20:08;97522.28;;;5.37;56.49
84615;BME280;74845;51.204;22.580;2024-02-23T00:22:37;97718.94;;;6.43;57.07
84615;BME280;74845;51.204;22.580;2024-02-23T00:25:05;97652.66;;;6.02;56.95
84615;BME280;74845;51.204;22.580;2024-02-23T00:27:32;97580.53;;;5.60;56.95
84615;BME280;74845;51.204;22.580;2024-02-23T00:29:59;97584.41;;;5.83;56.99
84615;BME280;74845;51.204;22.580;2024-02-23T00:32:27;97556.31;;;5.66;56.97
84615;BME280;74845;51.204;22.580;2024-02-23T00:34:55;97552.63;;;5.59;56.79
84615;BME280;74845;51.204;22.580;2024-02-23T00:37:22;97618.13;;;5.97;56.91
84615;BME280;74845;51.204;22.580;2024-02-23T00:39:49;97600.81;;;5.95;57.24
84615;BME280;74845;51.204;22.580;2024-02-23T00:42:16;97577.25;;;5.85;56.99
84615;BME280;74845;51.204;22.580;2024-02-23T00:44:44;97604.50;;;6.02;57.12
84615;BME280;74845;51.204;22.580;2024-02-23T00:47:11;97494.38;;;5.36;56.98
84615;BME280;74845;51.204;22.580;2024-02-23T00:49:37;97595.97;;;6.00;57.37
84615;BME280;74845;51.204;22.580;2024-02-23T00:52:04;97738.47;;;6.86;57.50
84615;BME280;74845;51.204;22.580;2024-02-23T00:54:31;97543.50;;;5.80;57.46
84615;BME280;74845;51.204;22.580;2024-02-23T00:56:58;97635.78;;;6.32;57.39
84615;BME280;74845;51.204;22.580;2024-02-23T00:59:25;97689.66;;;6.74;57.60
84615;BME280;74845;51.204;22.580;2024-02-23T01:01:52;97676.47;;;6.74;57.61
84615;BME280;74845;51.204;22.580;2024-02-23T01:04:19;97573.38;;;6.07;57.46
84615;BME280;74845;51.204;22.580;2024-02-23T01:06:45;97493.03;;;5.59;57.80
84615;BME280;74845;51.204;22.580;2024-02-23T01:09:15;97590.59;;;6.19;57.47
84615;BME280;74845;51.204;22.580;2024-02-23T01:11:47;97478.94;;;5.50;57.37
84615;BME280;74845;51.204;22.580;2024-02-23T01:14:15;97709.41;;;6.96;57.58
84615;BME280;74845;51.204;22.580;2024-02-23T01:16:42;97591.34;;;6.12;57.60
84615;BME280;74845;51.204;22.580;2024-02-23T01:19:09;97587.13;;;6.19;57.32
84615;BME280;74845;51.204;22.580;2024-02-23T01:21:36;97575.09;;;6.16;57.33
84615;BME280;74845;51.204;22.580;2024-02-23T01:24:03;97524.44;;;5.78;57.32
84615;BME280;74845;51.204;22.580;2024-02-23T01:26:31;97556.53;;;6.00;57.67
84615;BME280;74845;51.204;22.580;2024-02-23T01:28:57;97585.16;;;6.30;57.38
84615;BME280;74845;51.204;22.580;2024-02-23T01:31:25;97673.09;;;6.81;57.40
84615;BME280;74845;51.204;22.580;2024-02-23T01:33:52;97523.97;;;5.83;57.15
84615;BME280;74845;51.204;22.580;2024-02-23T01:36:19;97558.38;;;6.17;57.17
84615;BME280;74845;51.204;22.580;2024-02-23T01:38:46;97698.38;;;7.10;57.22
84615;BME280;74845;51.204;22.580;2024-02-23T01:41:13;97627.69;;;6.61;57.38
84615;BME280;74845;51.204;22.580;2024-02-23T01:43:40;97528.28;;;6.02;57.45
84615;BME280;74845;51.204;22.580;2024-02-23T01:46:07;97687.53;;;7.13;56.99
84615;BME280;74845;51.204;22.580;2024-02-23T01:48:35;97519.66;;;6.09;57.22
84615;BME280;74845;51.204;22.580;2024-02-23T01:51:02;97530.03;;;6.11;57.51
84615;BME280;74845;51.204;22.580;2024-02-23T01:53:29;97521.00;;;6.14;57.08
84615;BME280;74845;51.204;22.580;2024-02-23T01:55:57;97665.81;;;7.11;56.99
84615;BME280;74845;51.204;22.580;2024-02-23T01:58:26;97652.19;;;6.98;56.91
84615;BME280;74845;51.204;22.580;2024-02-23T02:00:53;97539.81;;;6.37;57.00
84615;BME280;74845;51.204;22.580;2024-02-23T02:03:20;97495.84;;;6.11;56.79
84615;BME280;74845;51.204;22.580;2024-02-23T02:05:47;97533.16;;;6.24;56.82
84615;BME280;74845;51.204;22.580;2024-02-23T02:08:14;97537.66;;;6.32;56.95
84615;BME280;74845;51.204;22.580;2024-02-23T02:10:41;97626.09;;;6.86;57.00
84615;BME280;74845;51.204;22.580;2024-02-23T02:13:09;97546.44;;;6.41;57.11
84615;BME280;74845;51.204;22.580;2024-02-23T02:15:36;97525.78;;;6.28;56.90
84615;BME280;74845;51.204;22.580;2024-02-23T02:18:03;97558.91;;;6.39;57.12
84615;BME280;74845;51.204;22.580;2024-02-23T02:20:32;97646.31;;;7.04;56.71
84615;BME280;74845;51.204;22.580;2024-02-23T02:23:00;97660.44;;;7.21;57.12
84615;BME280;74845;51.204;22.580;2024-02-23T02:25:27;97530.75;;;6.31;56.57
84615;BME280;74845;51.204;22.580;2024-02-23T02:27:53;97644.97;;;7.00;56.98
84615;BME280;74845;51.204;22.580;2024-02-23T02:30:20;97496.38;;;6.15;56.96
84615;BME280;74845;51.204;22.580;2024-02-23T02:32:47;97480.81;;;6.03;56.83
84615;BME280;74845;51.204;22.580;2024-02-23T02:35:14;97491.22;;;6.23;56.72
84615;BME280;74845;51.204;22.580;2024-02-23T02:37:41;97527.25;;;6.48;56.57
84615;BME280;74845;51.204;22.580;2024-02-23T02:40:08;97597.19;;;6.95;56.76
84615;BME280;74845;51.204;22.580;2024-02-23T02:42:35;97524.28;;;6.43;56.71
84615;BME280;74845;51.204;22.580;2024-02-23T02:45:02;97625.94;;;7.06;56.82
84615;BME280;74845;51.204;22.580;2024-02-23T02:47:29;97657.56;;;7.32;56.58
84615;BME280;74845;51.204;22.580;2024-02-23T02:49:57;97508.19;;;6.46;56.50
84615;BME280;74845;51.204;22.580;2024-02-23T02:52:24;97531.31;;;6.60;56.30
84615;BME280;74845;51.204;22.580;2024-02-23T02:54:51;97624.44;;;7.03;56.36
84615;BME280;74845;51.204;22.580;2024-02-23T02:57:17;97656.13;;;7.37;56.62
84615;BME280;74845;51.204;22.580;2024-02-23T02:59:44;97622.31;;;7.07;56.38
84615;BME280;74845;51.204;22.580;2024-02-23T03:02:12;97538.09;;;6.63;56.23
84615;BME280;74845;51.204;22.580;2024-02-23T03:04:46;97625.28;;;7.30;55.57
84615;BME280;74845;51.204;22.580;2024-02-23T03:07:14;97519.47;;;6.56;55.77
84615;BME280;74845;51.204;22.580;2024-02-23T03:09:40;97550.09;;;6.66;55.60
84615;BME280;74845;51.204;22.580;2024-02-23T03:12:08;97529.66;;;6.59;55.67
84615;BME280;74845;51.204;22.580;2024-02-23T03:14:35;97627.50;;;7.16;55.82
84615;BME280;74845;51.204;22.580;2024-02-23T03:17:04;97499.63;;;6.44;55.83
84615;BME280;74845;51.204;22.580;2024-02-23T03:19:31;97657.16;;;7.44;56.46
84615;BME280;74845;51.204;22.580;2024-02-23T03:21:59;97516.66;;;6.58;55.69
84615;BME280;74845;51.204;22.580;2024-02-23T03:24:26;97559.16;;;6.89;55.51
84615;BME280;74845;51.204;22.580;2024-02-23T03:26:53;97502.59;;;6.49;55.45
84615;BME280;74845;51.204;22.580;2024-02-23T03:29:21;97557.38;;;6.89;55.54
84615;BME280;74845;51.204;22.580;2024-02-23T03:31:51;97683.59;;;7.61;55.70
84615;BME280;74845;51.204;22.580;2024-02-23T03:34:17;97519.50;;;6.65;55.62
84615;BME280;74845;51.204;22.580;2024-02-23T03:36:44;97626.78;;;7.32;55.89
84615;BME280;74845;51.204;22.580;2024-02-23T03:39:11;97605.44;;;7.18;55.92
84615;BME280;74845;51.204;22.580;2024-02-23T03:41:38;97616.56;;;7.29;56.04
84615;BME280;74845;51.204;22.580;2024-02-23T03:44:05;97518.59;;;6.56;56.62
84615;BME280;74845;51.204;22.580;2024-02-23T03:46:32;97560.28;;;6.86;57.25
84615;BME280;74845;51.204;22.580;2024-02-23T03:48:58;97564.28;;;6.91;57.46
84615;BME280;74845;51.204;22.580;2024-02-23T03:51:25;97613.56;;;7.24;57.47
84615;BME280;74845;51.204;22.580;2024-02-23T03:53:52;97651.88;;;7.44;57.32
84615;BME280;74845;51.204;22.580;2024-02-23T03:56:19;97627.91;;;7.30;56.72
84615;BME280;74845;51.204;22.580;2024-02-23T03:58:46;97510.81;;;6.46;57.22
84615;BME280;74845;51.204;22.580;2024-02-23T04:01:13;97646.34;;;7.30;57.27
84615;BME280;74845;51.204;22.580;2024-02-23T04:03:39;97613.53;;;6.98;57.02
84615;BME280;74845;51.204;22.580;2024-02-23T04:06:07;97580.06;;;6.91;56.60
84615;BME280;74845;51.204;22.580;2024-02-23T04:08:34;97559.19;;;6.71;56.53
84615;BME280;74845;51.204;22.580;2024-02-23T04:11:01;97546.50;;;6.67;56.57
84615;BME280;74845;51.204;22.580;2024-02-23T04:13:29;97520.06;;;6.50;56.43
84615;BME280;74845;51.204;22.580;2024-02-23T04:15:56;97555.59;;;6.72;56.32
84615;BME280;74845;51.204;22.580;2024-02-23T04:18:24;97565.56;;;6.69;56.53
84615;BME280;74845;51.204;22.580;2024-02-23T04:20:50;97544.63;;;6.59;56.80
84615;BME280;74845;51.204;22.580;2024-02-23T04:23:17;97503.69;;;6.39;56.71
84615;BME280;74845;51.204;22.580;2024-02-23T04:25:44;97520.88;;;6.51;56.54
84615;BME280;74845;51.204;22.580;2024-02-23T04:28:11;97633.22;;;7.12;56.94
84615;BME280;74845;51.204;22.580;2024-02-23T04:30:38;97598.63;;;6.89;56.74
84615;BME280;74845;51.204;22.580;2024-02-23T04:33:05;97543.13;;;6.56;57.86
84615;BME280;74845;51.204;22.580;2024-02-23T04:35:32;97530.88;;;6.47;58.04
84615;BME280;74845;51.204;22.580;2024-02-23T04:37:58;97588.53;;;6.76;58.01
84615;BME280;74845;51.204;22.580;2024-02-23T04:40:25;97494.75;;;6.31;58.19
84615;BME280;74845;51.204;22.580;2024-02-23T04:42:52;97580.25;;;6.71;57.99
84615;BME280;74845;51.204;22.580;2024-02-23T04:45:19;97597.16;;;6.86;58.03
84615;BME280;74845;51.204;22.580;2024-02-23T04:47:46;97555.00;;;6.60;57.85
84615;BME280;74845;51.204;22.580;2024-02-23T04:50:14;97585.50;;;6.71;57.74
84615;BME280;74845;51.204;22.580;2024-02-23T04:52:42;97685.38;;;7.34;58.08
84615;BME280;74845;51.204;22.580;2024-02-23T04:55:08;97577.56;;;6.63;58.18
84615;BME280;74845;51.204;22.580;2024-02-23T04:57:36;97691.88;;;7.22;58.50
84615;BME280;74845;51.204;22.580;2024-02-23T05:00:04;97585.97;;;6.49;57.99
84615;BME280;74845;51.204;22.580;2024-02-23T05:02:34;97683.47;;;7.19;59.54
84615;BME280;74845;51.204;22.580;2024-02-23T05:05:03;97560.84;;;6.37;59.25
84615;BME280;74845;51.204;22.580;2024-02-23T05:07:31;97580.47;;;6.42;59.58
84615;BME280;74845;51.204;22.580;2024-02-23T05:09:59;97691.59;;;7.07;59.25
84615;BME280;74845;51.204;22.580;2024-02-23T05:12:27;97592.69;;;6.43;59.63
84615;BME280;74845;51.204;22.580;2024-02-23T05:14:53;97563.03;;;6.23;59.44
84615;BME280;74845;51.204;22.580;2024-02-23T05:17:20;97590.75;;;6.35;59.82
84615;BME280;74845;51.204;22.580;2024-02-23T05:19:47;97558.41;;;6.07;60.29
84615;BME280;74845;51.204;22.580;2024-02-23T05:22:14;97677.38;;;6.82;60.51
84615;BME280;74845;51.204;22.580;2024-02-23T05:24:41;97515.72;;;5.78;59.80
84615;BME280;74845;51.204;22.580;2024-02-23T05:27:08;97630.38;;;6.34;60.30
84615;BME280;74845;51.204;22.580;2024-02-23T05:29:35;97613.94;;;6.32;60.19
84615;BME280;74845;51.204;22.580;2024-02-23T05:32:02;97676.19;;;6.59;59.71
84615;BME280;74845;51.204;22.580;2024-02-23T05:34:28;97602.09;;;6.18;59.92
84615;BME280;74845;51.204;22.580;2024-02-23T05:36:56;97570.41;;;5.92;60.03
84615;BME280;74845;51.204;22.580;2024-02-23T05:39:23;97697.31;;;6.67;59.94
84615;BME280;74845;51.204;22.580;2024-02-23T05:41:50;97541.53;;;5.65;60.27
84615;BME280;74845;51.204;22.580;2024-02-23T05:44:17;97681.06;;;6.54;60.10
84615;BME280;74845;51.204;22.580;2024-02-23T05:46:44;97594.75;;;5.94;60.44
84615;BME280;74845;51.204;22.580;2024-02-23T05:49:11;97781.59;;;7.03;60.31
84615;BME280;74845;51.204;22.580;2024-02-23T05:51:38;97585.56;;;5.80;60.56
84615;BME280;74845;51.204;22.580;2024-02-23T05:54:05;97625.69;;;6.00;60.52
84615;BME280;74845;51.204;22.580;2024-02-23T05:56:32;97649.03;;;6.13;61.08
84615;BME280;74845;51.204;22.580;2024-02-23T05:58:59;97728.88;;;6.67;60.82
84615;BME280;74845;51.204;22.580;2024-02-23T06:01:26;97796.53;;;7.02;60.06
84615;BME280;74845;51.204;22.580;2024-02-23T06:03:52;97582.13;;;5.70;60.42
84615;BME280;74845;51.204;22.580;2024-02-23T06:06:21;97784.22;;;7.03;60.69
84615;BME280;74845;51.204;22.580;2024-02-23T06:08:48;97733.88;;;6.70;60.73
84615;BME280;74845;51.204;22.580;2024-02-23T06:11:16;97768.19;;;6.96;60.57
84615;BME280;74845;51.204;22.580;2024-02-23T06:13:43;97719.78;;;6.61;61.13
84615;BME280;74845;51.204;22.580;2024-02-23T06:16:10;97795.44;;;7.05;61.00
84615;BME280;74845;51.204;22.580;2024-02-23T06:18:41;97740.47;;;6.74;59.96
84615;BME280;74845;51.204;22.580;2024-02-23T06:21:12;97612.31;;;5.94;59.95
84615;BME280;74845;51.204;22.580;2024-02-23T06:23:40;97795.88;;;7.00;61.14
84615;BME280;74845;51.204;22.580;2024-02-23T06:26:07;97714.00;;;6.58;60.27
84615;BME280;74845;51.204;22.580;2024-02-23T06:28:33;97657.31;;;6.18;60.97
84615;BME280;74845;51.204;22.580;2024-02-23T06:31:00;97687.09;;;6.37;60.65
84615;BME280;74845;51.204;22.580;2024-02-23T06:33:27;97767.25;;;6.87;60.95
84615;BME280;74845;51.204;22.580;2024-02-23T06:35:54;97719.41;;;6.56;61.31
84615;BME280;74845;51.204;22.580;2024-02-23T06:38:21;97814.78;;;7.13;61.19
84615;BME280;74845;51.204;22.580;2024-02-23T06:40:48;97760.78;;;6.82;61.33
84615;BME280;74845;51.204;22.580;2024-02-23T06:43:18;97620.25;;;5.84;61.59
84615;BME280;74845;51.204;22.580;2024-02-23T06:45:49;97764.78;;;6.86;61.50
84615;BME280;74845;51.204;22.580;2024-02-23T06:48:16;97800.47;;;6.98;61.26
84615;BME280;74845;51.204;22.580;2024-02-23T06:50:43;97655.53;;;6.09;62.05
84615;BME280;74845;51.204;22.580;2024-02-23T06:53:10;97697.38;;;6.30;61.45
84615;BME280;74845;51.204;22.580;2024-02-23T06:55:37;97704.84;;;6.34;60.97
84615;BME280;74845;51.204;22.580;2024-02-23T06:58:04;97709.13;;;6.35;61.13
84615;BME280;74845;51.204;22.580;2024-02-23T07:00:31;97666.28;;;6.16;61.54
84615;BME280;74845;51.204;22.580;2024-02-23T07:02:58;97707.19;;;6.38;61.88
84615;BME280;74845;51.204;22.580;2024-02-23T07:05:25;97669.66;;;6.08;62.31
84615;BME280;74845;51.204;22.580;2024-02-23T07:07:52;97735.63;;;6.52;62.40
84615;BME280;74845;51.204;22.580;2024-02-23T07:10:19;97698.09;;;6.22;62.03
84615;BME280;74845;51.204;22.580;2024-02-23T07:12:48;97848.03;;;7.14;62.96
84615;BME280;74845;51.204;22.580;2024-02-23T07:15:15;97720.94;;;6.31;62.44
84615;BME280;74845;51.204;22.580;2024-02-23T07:17:42;97850.53;;;7.16;62.46
84615;BME280;74845;51.204;22.580;2024-02-23T07:20:09;97730.88;;;6.38;62.14
84615;BME280;74845;51.204;22.580;2024-02-23T07:22:36;97790.06;;;6.79;62.44
84615;BME280;74845;51.204;22.580;2024-02-23T07:25:05;97853.69;;;7.20;63.27
84615;BME280;74845;51.204;22.580;2024-02-23T07:27:32;97717.31;;;6.32;62.28
84615;BME280;74845;51.204;22.580;2024-02-23T07:29:58;97700.03;;;6.20;62.11
84615;BME280;74845;51.204;22.580;2024-02-23T07:32:25;97853.53;;;7.21;62.16
84615;BME280;74845;51.204;22.580;2024-02-23T07:34:54;97742.88;;;6.40;61.27
84615;BME280;74845;51.204;22.580;2024-02-23T07:37:20;97678.34;;;6.18;62.34
84615;BME280;74845;51.204;22.580;2024-02-23T07:39:47;97825.66;;;7.01;61.62
84615;BME280;74845;51.204;22.580;2024-02-23T07:42:14;97687.72;;;6.21;61.78
84615;BME280;74845;51.204;22.580;2024-02-23T07:44:45;97821.31;;;7.09;61.90
84615;BME280;74845;51.204;22.580;2024-02-23T07:47:12;97872.78;;;7.49;61.21
84615;BME280;74845;51.204;22.580;2024-02-23T07:49:39;97801.38;;;7.07;61.23
84615;BME280;74845;51.204;22.580;2024-02-23T07:52:09;97729.03;;;6.66;61.74
84615;BME280;74845;51.204;22.580;2024-02-23T07:54:36;97842.81;;;7.50;61.07
84615;BME280;74845;51.204;22.580;2024-02-23T07:57:03;97881.72;;;7.74;61.16
84615;BME280;74845;51.204;22.580;2024-02-23T07:59:31;97789.66;;;7.19;61.56
84615;BME280;74845;51.204;22.580;2024-02-23T08:02:00;97840.00;;;7.52;61.21
84615;BME280;74845;51.204;22.580;2024-02-23T08:04:26;97745.78;;;6.92;61.64
84615;BME280;74845;51.204;22.580;2024-02-23T08:06:53;97876.16;;;7.77;61.86
84615;BME280;74845;51.204;22.580;2024-02-23T08:09:20;97795.53;;;7.31;61.43
84615;BME280;74845;51.204;22.580;2024-02-23T08:11:48;97730.13;;;6.91;61.88
84615;BME280;74845;51.204;22.580;2024-02-23T08:14:16;97765.88;;;7.11;60.66
84615;BME280;74845;51.204;22.580;2024-02-23T08:16:43;97846.41;;;7.67;62.00
84615;BME280;74845;51.204;22.580;2024-02-23T08:19:09;97866.16;;;7.81;61.81
84615;BME280;74845;51.204;22.580;2024-02-23T08:21:36;97874.88;;;7.81;61.31
84615;BME280;74845;51.204;22.580;2024-02-23T08:24:03;97675.88;;;6.62;62.22
84615;BME280;74845;51.204;22.580;2024-02-23T08:26:30;97793.78;;;7.22;61.99
84615;BME280;74845;51.204;22.580;2024-02-23T08:28:57;97778.34;;;7.09;61.69
84615;BME280;74845;51.204;22.580;2024-02-23T08:31:25;97825.00;;;7.34;61.87
84615;BME280;74845;51.204;22.580;2024-02-23T08:33:52;97898.31;;;7.84;61.64
84615;BME280;74845;51.204;22.580;2024-02-23T08:36:19;97810.78;;;7.27;61.67
84615;BME280;74845;51.204;22.580;2024-02-23T08:38:46;97820.13;;;7.22;62.20
84615;BME280;74845;51.204;22.580;2024-02-23T08:41:13;97786.72;;;7.04;62.15
84615;BME280;74845;51.204;22.580;2024-02-23T08:43:40;97852.97;;;7.45;61.95
84615;BME280;74845;51.204;22.580;2024-02-23T08:46:07;97809.44;;;7.23;61.81
84615;BME280;74845;51.204;22.580;2024-02-23T08:48:36;97892.03;;;7.67;62.22
84615;BME280;74845;51.204;22.580;2024-02-23T08:51:03;97805.38;;;7.11;62.53
84615;BME280;74845;51.204;22.580;2024-02-23T08:53:30;97810.63;;;7.11;61.99
84615;BME280;74845;51.204;22.580;2024-02-23T08:55:57;97741.47;;;6.73;62.89
84615;BME280;74845;51.204;22.580;2024-02-23T08:58:24;97799.13;;;7.12;62.24
84615;BME280;74845;51.204;22.580;2024-02-23T09:00:51;97831.72;;;7.29;61.89
84615;BME280;74845;51.204;22.580;2024-02-23T09:03:18;97888.78;;;7.74;62.06
84615;BME280;74845;51.204;22.580;2024-02-23T09:05:45;97765.03;;;6.93;61.50
84615;BME280;74845;51.204;22.580;2024-02-23T09:08:13;97786.94;;;7.11;61.18
84615;BME280;74845;51.204;22.580;2024-02-23T09:10:41;97783.47;;;7.10;62.18
84615;BME280;74845;51.204;22.580;2024-02-23T09:13:08;97762.41;;;7.10;63.35
84615;BME280;74845;51.204;22.580;2024-02-23T09:15:34;97798.81;;;7.33;61.41
84615;BME280;74845;51.204;22.580;2024-02-23T09:18:01;97768.19;;;7.14;61.95
84615;BME280;74845;51.204;22.580;2024-02-23T09:20:28;97817.50;;;7.39;61.75
84615;BME280;74845;51.204;22.580;2024-02-23T09:22:57;97795.59;;;7.21;62.06
84615;BME280;74845;51.204;22.580;2024-02-23T09:25:24;97791.84;;;7.24;62.39
84615;BME280;74845;51.204;22.580;2024-02-23T09:27:51;97853.69;;;7.55;61.98
84615;BME280;74845;51.204;22.580;2024-02-23T09:30:18;97785.88;;;7.22;62.83
84615;BME280;74845;51.204;22.580;2024-02-23T09:32:45;97803.72;;;7.28;61.90
84615;BME280;74845;51.204;22.580;2024-02-23T09:35:13;97795.91;;;7.18;62.45
84615;BME280;74845;51.204;22.580;2024-02-23T09:37:40;97805.28;;;7.21;62.56
84615;BME280;74845;51.204;22.580;2024-02-23T09:40:08;97972.84;;;8.22;62.56
84615;BME280;74845;51.204;22.580;2024-02-23T09:42:35;97884.06;;;7.77;61.63
84615;BME280;74845;51.204;22.580;2024-02-23T09:45:06;97954.28;;;8.32;61.65
84615;BME280;74845;51.204;22.580;2024-02-23T09:47:34;97860.19;;;7.61;62.00
84615;BME280;74845;51.204;22.580;2024-02-23T09:50:03;97821.28;;;7.37;62.17
84615;BME280;74845;51.204;22.580;2024-02-23T09:52:31;97829.91;;;7.47;61.77
84615;BME280;74845;51.204;22.580;2024-02-23T09:54:59;97833.16;;;7.59;61.51
84615;BME280;74845;51.204;22.580;2024-02-23T09:57:26;97769.94;;;7.23;61.19
84615;BME280;74845;51.204;22.580;2024-02-23T09:59:54;97887.94;;;7.83;61.49
84615;BME280;74845;51.204;22.580;2024-02-23T10:02:21;97865.44;;;7.79;62.50
84615;BME280;74845;51.204;22.580;2024-02-23T10:04:49;97780.69;;;7.30;61.15
84615;BME280;74845;51.204;22.580;2024-02-23T10:07:17;97785.03;;;7.21;61.86
84615;BME280;74845;51.204;22.580;2024-02-23T10:09:45;97807.13;;;7.38;62.10
84615;BME280;74845;51.204;22.580;2024-02-23T10:12:12;97798.00;;;7.32;61.61
84615;BME280;74845;51.204;22.580;2024-02-23T10:14:41;97784.44;;;7.27;60.95
84615;BME280;74845;51.204;22.580;2024-02-23T10:17:08;97822.38;;;7.52;61.91
84615;BME280;74845;51.204;22.580;2024-02-23T10:19:35;97813.59;;;7.43;61.60
84615;BME280;74845;51.204;22.580;2024-02-23T10:22:02;97855.59;;;7.63;61.41
84615;BME280;74845;51.204;22.580;2024-02-23T10:24:29;97803.28;;;7.32;61.42
84615;BME280;74845;51.204;22.580;2024-02-23T10:26:56;97785.75;;;7.23;61.67
84615;BME280;74845;51.204;22.580;2024-02-23T10:29:23;97863.34;;;7.64;61.76
84615;BME280;74845;51.204;22.580;2024-02-23T10:31:57;97968.56;;;8.47;61.00
84615;BME280;74845;51.204;22.580;2024-02-23T10:34:24;97794.00;;;7.28;61.41
84615;BME280;74845;51.204;22.580;2024-02-23T10:36:53;97883.25;;;7.77;61.68
84615;BME280;74845;51.204;22.580;2024-02-23T10:39:23;97851.81;;;7.65;61.48
84615;BME280;74845;51.204;22.580;2024-02-23T10:41:57;97874.75;;;7.83;60.80
84615;BME280;74845;51.204;22.580;2024-02-23T10:44:27;97821.78;;;7.40;61.13
84615;BME280;74845;51.204;22.580;2024-02-23T10:46:55;97960.31;;;8.24;61.44
84615;BME280;74845;51.204;22.580;2024-02-23T10:49:23;97870.66;;;7.70;61.44
84615;BME280;74845;51.204;22.580;2024-02-23T10:51:54;97984.94;;;8.33;61.32
84615;BME280;74845;51.204;22.580;2024-02-23T10:54:21;97845.22;;;7.43;61.39
84615;BME280;74845;51.204;22.580;2024-02-23T10:56:50;97841.97;;;7.32;61.75
84615;BME280;74845;51.204;22.580;2024-02-23T10:59:17;97799.72;;;7.06;62.02
84615;BME280;74845;51.204;22.580;2024-02-23T11:01:51;97834.09;;;7.22;61.69
84615;BME280;74845;51.204;22.580;2024-02-23T11:04:22;97980.88;;;8.20;61.39
84615;BME280;74845;51.204;22.580;2024-02-23T11:06:54;97933.78;;;7.72;62.05
84615;BME280;74845;51.204;22.580;2024-02-23T11:09:25;97896.63;;;7.48;61.70
84615;BME280;74845;51.204;22.580;2024-02-23T11:11:56;97864.75;;;7.23;61.72
84615;BME280;74845;51.204;22.580;2024-02-23T11:14:31;98015.72;;;8.24;61.02
84615;BME280;74845;51.204;22.580;2024-02-23T11:17:02;97848.72;;;7.16;62.57
84615;BME280;74845;51.204;22.580;2024-02-23T11:19:38;97885.84;;;7.41;60.98
84615;BME280;74845;51.204;22.580;2024-02-23T11:22:09;97872.75;;;7.31;61.75
84615;BME280;74845;51.204;22.580;2024-02-23T11:24:49;98004.19;;;8.07;62.45
84615;BME280;74845;51.204;22.580;2024-02-23T11:27:20;97847.34;;;7.12;62.04
84615;BME280;74845;51.204;22.580;2024-02-23T11:29:47;97974.47;;;7.87;62.78
84615;BME280;74845;51.204;22.580;2024-02-23T11:32:18;97930.34;;;7.62;62.94
84615;BME280;74845;51.204;22.580;2024-02-23T11:34:55;97979.16;;;7.93;61.65
84615;BME280;74845;51.204;22.580;2024-02-23T11:37:28;97807.34;;;6.81;61.77
84615;BME280;74845;51.204;22.580;2024-02-23T11:39:56;98012.56;;;8.03;62.56
84615;BME280;74845;51.204;22.580;2024-02-23T11:42:24;97990.19;;;7.79;62.93
84615;BME280;74845;51.204;22.580;2024-02-23T11:44:52;97894.69;;;7.22;63.10
84615;BME280;74845;51.204;22.580;2024-02-23T11:47:20;97961.63;;;7.57;63.08
84615;BME280;74845;51.204;22.580;2024-02-23T11:49:48;97989.78;;;7.74;62.98
84615;BME280;74845;51.204;22.580;2024-02-23T11:52:15;97875.84;;;6.99;63.15
84615;BME280;74845;51.204;22.580;2024-02-23T11:54:44;97838.16;;;6.71;63.80
84615;BME280;74845;51.204;22.580;2024-02-23T11:57:11;98026.63;;;7.93;63.65
84615;BME280;74845;51.204;22.580;2024-02-23T11:59:40;97988.22;;;7.63;63.21
84615;BME280;74845;51.204;22.580;2024-02-23T12:02:06;97969.81;;;7.54;63.87
84615;BME280;74845;51.204;22.580;2024-02-23T12:04:34;97979.09;;;7.58;63.67
84615;BME280;74845;51.204;22.580;2024-02-23T12:07:01;97993.97;;;7.77;63.62
84615;BME280;74845;51.204;22.580;2024-02-23T12:09:29;98016.44;;;7.81;63.53
84615;BME280;74845;51.204;22.580;2024-02-23T12:11:57;97969.91;;;7.62;64.05
84615;BME280;74845;51.204;22.580;2024-02-23T12:14:24;97872.97;;;6.93;64.53
84615;BME280;74845;51.204;22.580;2024-02-23T12:16:52;97850.88;;;6.76;63.67
84615;BME280;74845;51.204;22.580;2024-02-23T12:19:19;97909.19;;;7.08;64.11
84615;BME280;74845;51.204;22.580;2024-02-23T12:21:46;97890.97;;;6.97;63.95
84615;BME280;74845;51.204;22.580;2024-02-23T12:24:13;97893.44;;;6.99;64.21
84615;BME280;74845;51.204;22.580;2024-02-23T12:26:40;97954.34;;;7.41;63.90
84615;BME280;74845;51.204;22.580;2024-02-23T12:29:09;98000.50;;;7.73;64.09
84615;BME280;74845;51.204;22.580;2024-02-23T12:31:36;97936.00;;;7.22;64.63
84615;BME280;74845;51.204;22.580;2024-02-23T12:34:03;97888.47;;;6.96;64.40
84615;BME280;74845;51.204;22.580;2024-02-23T12:36:30;98053.81;;;7.94;64.19
84615;BME280;74845;51.204;22.580;2024-02-23T12:39:01;97910.88;;;7.09;64.10
84615;BME280;74845;51.204;22.580;2024-02-23T12:41:28;98048.69;;;7.92;64.26
84615;BME280;74845;51.204;22.580;2024-02-23T12:43:55;98035.94;;;7.88;64.45
84615;BME280;74845;51.204;22.580;2024-02-23T12:46:22;97979.53;;;7.53;64.24
84615;BME280;74845;51.204;22.580;2024-02-23T12:48:50;97905.63;;;7.00;64.59
84615;BME280;74845;51.204;22.580;2024-02-23T12:51:17;97950.66;;;7.34;64.07
84615;BME280;74845;51.204;22.580;2024-02-23T12:53:44;97942.34;;;7.29;64.19
84615;BME280;74845;51.204;22.580;2024-02-23T12:56:13;98042.06;;;7.88;64.22
84615;BME280;74845;51.204;22.580;2024-02-23T12:58:41;97949.00;;;7.33;64.44
84615;BME280;74845;51.204;22.580;2024-02-23T13:01:10;98050.94;;;7.87;64.44